createdAt,value
2022-12-08T00:00:59.928Z,80
2022-12-08T00:03:30.858Z,80
2022-12-08T00:06:01.442Z,79
2022-12-08T00:08:32.188Z,79
2022-12-08T00:11:02.422Z,79
2022-12-08T00:13:33.607Z,80
2022-12-08T00:16:05.075Z,80
2022-12-08T00:18:35.402Z,81
2022-12-08T00:21:06.352Z,80
2022-12-08T00:23:36.988Z,79
2022-12-08T00:26:07.873Z,80
2022-12-08T00:28:38.380Z,80
2022-12-08T00:31:09.442Z,80
2022-12-08T00:33:42.913Z,80
2022-12-08T00:36:14.104Z,80
2022-12-08T00:38:44.655Z,79
2022-12-08T00:41:15.900Z,79
2022-12-08T00:43:46.442Z,79
2022-12-08T00:46:16.920Z,79
2022-12-08T00:48:48.336Z,79
2022-12-08T00:51:19.355Z,79
2022-12-08T00:53:50.217Z,79
2022-12-08T00:56:21.518Z,80
2022-12-08T00:58:52.933Z,80
2022-12-08T01:01:23.796Z,79
2022-12-08T01:03:54.652Z,79
2022-12-08T01:06:25.618Z,78
2022-12-08T01:08:57.853Z,79
2022-12-08T01:11:28.262Z,78
2022-12-08T01:13:59.175Z,78
2022-12-08T01:16:29.697Z,79
2022-12-08T01:19:00.212Z,79
2022-12-08T01:21:31.830Z,79
2022-12-08T01:24:02.861Z,79
2022-12-08T01:26:33.979Z,79
2022-12-08T01:29:04.502Z,78
2022-12-08T01:31:34.777Z,79
2022-12-08T01:34:05.049Z,79
2022-12-08T01:36:35.745Z,79
2022-12-08T01:39:06.907Z,79
2022-12-08T01:41:37.710Z,79
2022-12-08T01:44:07.898Z,79
2022-12-08T01:46:38.312Z,79
2022-12-08T01:49:09.206Z,79
2022-12-08T01:51:39.941Z,80
2022-12-08T01:54:11.047Z,81
2022-12-08T01:56:42.497Z,80
2022-12-08T01:59:14.199Z,80
2022-12-08T02:01:46.295Z,80
2022-12-08T02:04:17.263Z,80
2022-12-08T02:06:48.600Z,80
2022-12-08T02:09:20.150Z,80
2022-12-08T02:11:51.629Z,80
2022-12-08T02:14:23.205Z,80
2022-12-08T02:16:54.159Z,80
2022-12-08T02:19:32.307Z,80
2022-12-08T02:21:56.029Z,80
2022-12-08T02:24:27.069Z,81
2022-12-08T02:26:57.779Z,81
2022-12-08T02:29:28.957Z,81
2022-12-08T02:31:59.521Z,80
2022-12-08T02:34:31.310Z,80
2022-12-08T02:37:02.172Z,80
2022-12-08T02:39:32.925Z,79
2022-12-08T02:42:03.510Z,79
2022-12-08T02:44:34.884Z,79
2022-12-08T02:47:06.065Z,79
2022-12-08T02:49:36.530Z,79
2022-12-08T02:52:07.556Z,79
2022-12-08T02:54:38.660Z,78
2022-12-08T02:57:09.615Z,79
2022-12-08T02:59:40.088Z,79
2022-12-08T03:02:10.484Z,79
2022-12-08T03:04:40.997Z,79
2022-12-08T03:07:11.563Z,79
2022-12-08T03:09:43.176Z,79
2022-12-08T03:12:15.114Z,79
2022-12-08T03:14:46.047Z,79
2022-12-08T03:17:17.245Z,79
2022-12-08T03:19:48.725Z,79
2022-12-08T03:22:19.574Z,80
2022-12-08T03:24:50.430Z,80
2022-12-08T03:27:21.740Z,80
2022-12-08T03:29:53.156Z,80
2022-12-08T03:32:24.286Z,79
2022-12-08T03:34:55.644Z,79
2022-12-08T03:37:26.713Z,80
2022-12-08T03:39:58.036Z,80
2022-12-08T03:42:28.812Z,79
2022-12-08T03:44:59.704Z,79
2022-12-08T03:47:30.501Z,79
2022-12-08T03:50:01.519Z,79
2022-12-08T03:52:32.501Z,79
2022-12-08T03:55:03.280Z,79
2022-12-08T03:57:33.512Z,78
2022-12-08T04:00:04.354Z,78
2022-12-08T04:02:35.615Z,78
2022-12-08T04:05:07.471Z,78
2022-12-08T04:07:39.394Z,79
2022-12-08T04:10:10.257Z,79
2022-12-08T04:12:41.775Z,78
2022-12-08T04:15:13.222Z,78
2022-12-08T04:17:45.184Z,78
2022-12-08T04:20:15.660Z,78
2022-12-08T04:22:47.409Z,78
2022-12-08T04:25:19.193Z,78
2022-12-08T04:27:50.309Z,78
2022-12-08T04:30:21.401Z,78
2022-12-08T04:32:52.143Z,78
2022-12-08T04:35:23.073Z,78
2022-12-08T04:37:54.218Z,78
2022-12-08T04:40:25.231Z,78
2022-12-08T04:42:56.439Z,78
2022-12-08T04:45:27.339Z,78
2022-12-08T04:47:58.801Z,78
2022-12-08T04:50:30.436Z,77
2022-12-08T04:53:00.964Z,77
2022-12-08T04:55:31.868Z,77
2022-12-08T04:58:03.021Z,77
2022-12-08T05:00:34.824Z,77
2022-12-08T05:03:06.193Z,77
2022-12-08T05:05:36.687Z,77
2022-12-08T05:08:08.161Z,78
2022-12-08T05:10:38.918Z,78
2022-12-08T05:13:10.121Z,79
2022-12-08T05:15:40.313Z,78
2022-12-08T05:18:11.352Z,78
2022-12-08T05:20:41.048Z,78
2022-12-08T05:23:12.197Z,78
2022-12-08T05:25:43.166Z,77
2022-12-08T05:28:40.008Z,77
2022-12-08T05:30:45.343Z,77
2022-12-08T05:33:16.829Z,78
2022-12-08T05:35:47.374Z,77
2022-12-08T05:38:18.472Z,77
2022-12-08T05:40:50.416Z,77
2022-12-08T05:43:21.585Z,77
2022-12-08T05:45:52.453Z,77
2022-12-08T05:48:23.466Z,76
2022-12-08T05:50:54.088Z,76
2022-12-08T05:53:24.868Z,76
2022-12-08T05:55:56.563Z,76
2022-12-08T05:58:27.449Z,76
2022-12-08T06:00:59.053Z,76
2022-12-08T06:03:29.444Z,76
2022-12-08T06:06:00.240Z,76
2022-12-08T06:08:31.305Z,77
2022-12-08T06:11:02.351Z,78
2022-12-08T06:13:32.980Z,77
2022-12-08T06:16:04.667Z,77
2022-12-08T06:18:35.437Z,77
2022-12-08T06:21:05.970Z,77
2022-12-08T06:23:40.701Z,77
2022-12-08T06:26:11.376Z,77
2022-12-08T06:28:42.969Z,77
2022-12-08T06:31:14.029Z,77
2022-12-08T06:33:45.354Z,77
2022-12-08T06:36:17.135Z,78
2022-12-08T06:38:48.038Z,78
2022-12-08T06:41:18.461Z,78
2022-12-08T06:43:49.088Z,78
2022-12-08T06:46:19.647Z,78
2022-12-08T06:48:50.459Z,78
2022-12-08T06:51:21.840Z,78
2022-12-08T06:53:52.719Z,78
2022-12-08T06:56:24.309Z,78
2022-12-08T06:58:55.107Z,78
2022-12-08T07:01:26.445Z,77
2022-12-08T07:03:56.520Z,78
2022-12-08T07:06:27.056Z,78
2022-12-08T07:08:57.412Z,78
2022-12-08T07:11:27.601Z,78
2022-12-08T07:13:58.777Z,78
2022-12-08T07:16:29.299Z,78
2022-12-08T07:19:00.200Z,78
2022-12-08T07:21:31.012Z,78
2022-12-08T07:24:01.337Z,77
2022-12-08T07:26:31.837Z,77
2022-12-08T07:29:01.994Z,77
2022-12-08T07:31:33.019Z,78
2022-12-08T07:34:04.019Z,77
2022-12-08T07:36:34.341Z,77
2022-12-08T07:39:05.079Z,77
2022-12-08T07:41:35.987Z,77
2022-12-08T07:44:06.951Z,77
2022-12-08T07:46:37.897Z,76
2022-12-08T07:49:08.325Z,77
2022-12-08T07:51:39.203Z,77
2022-12-08T07:54:09.500Z,76
2022-12-08T07:56:40.267Z,76
2022-12-08T07:59:11.188Z,76
2022-12-08T08:01:45.105Z,77
2022-12-08T08:04:11.735Z,77
2022-12-08T08:06:43.159Z,77
2022-12-08T08:09:14.101Z,77
2022-12-08T08:11:55.985Z,76
2022-12-08T08:14:16.202Z,77
2022-12-08T08:16:47.974Z,76
2022-12-08T08:19:19.237Z,77
2022-12-08T08:21:50.229Z,77
2022-12-08T08:24:21.422Z,77
2022-12-08T08:26:51.870Z,76
2022-12-08T08:29:22.115Z,76
2022-12-08T08:31:53.252Z,75
2022-12-08T08:34:24.480Z,75
2022-12-08T08:36:53.187Z,74
2022-12-08T08:39:24.244Z,74
2022-12-08T08:41:54.336Z,74
2022-12-08T08:44:24.847Z,74
2022-12-08T08:46:53.893Z,74
2022-12-08T08:49:24.010Z,73
2022-12-08T08:51:54.400Z,74
2022-12-08T08:54:24.896Z,74
2022-12-08T08:56:56.121Z,74
2022-12-08T08:59:26.481Z,74
2022-12-08T09:01:57.151Z,73
2022-12-08T09:04:27.984Z,74
2022-12-08T09:06:59.801Z,74
2022-12-08T09:09:30.309Z,73
2022-12-08T09:12:01.580Z,73
2022-12-08T09:14:32.208Z,73
2022-12-08T09:17:03.187Z,73
2022-12-08T09:19:34.359Z,73
2022-12-08T09:22:04.871Z,73
2022-12-08T09:24:35.207Z,72
2022-12-08T09:27:05.768Z,73
2022-12-08T09:29:36.670Z,73
2022-12-08T09:32:06.963Z,73
2022-12-08T09:34:37.238Z,73
2022-12-08T09:37:07.944Z,73
2022-12-08T09:39:38.584Z,72
2022-12-08T09:42:09.296Z,73
2022-12-08T09:44:39.790Z,72
2022-12-08T09:47:10.007Z,73
2022-12-08T09:49:39.535Z,73
2022-12-08T09:52:14.378Z,73
2022-12-08T09:54:44.948Z,73
2022-12-08T09:57:16.106Z,73
2022-12-08T09:59:46.400Z,73
2022-12-08T10:02:17.159Z,73
2022-12-08T10:04:47.912Z,73
2022-12-08T10:07:18.495Z,73
2022-12-08T10:09:47.543Z,73
2022-12-08T10:12:18.290Z,74
2022-12-08T10:14:48.907Z,73
2022-12-08T10:17:19.457Z,74
2022-12-08T10:19:49.767Z,74
2022-12-08T10:22:20.837Z,74
2022-12-08T10:24:51.556Z,74
2022-12-08T10:27:21.922Z,74
2022-12-08T10:29:53.142Z,73
2022-12-08T10:32:24.100Z,74
2022-12-08T10:34:56.378Z,74
2022-12-08T10:37:24.552Z,74
2022-12-08T10:39:55.353Z,73
2022-12-08T10:42:26.321Z,74
2022-12-08T10:44:57.059Z,74
2022-12-08T10:47:27.759Z,74
2022-12-08T10:49:58.231Z,75
2022-12-08T10:52:29.305Z,75
2022-12-08T10:55:00.255Z,75
2022-12-08T10:57:30.931Z,75
2022-12-08T11:00:02.421Z,75
2022-12-08T11:02:32.992Z,75
2022-12-08T11:05:04.582Z,75
2022-12-08T11:07:35.106Z,75
2022-12-08T11:10:06.065Z,75
2022-12-08T11:12:36.053Z,75
2022-12-08T11:15:06.937Z,75
2022-12-08T11:17:37.485Z,75
2022-12-08T11:20:08.727Z,76
2022-12-08T11:22:39.272Z,76
2022-12-08T11:25:09.958Z,76
2022-12-08T11:27:41.319Z,76
2022-12-08T11:30:14.401Z,76
2022-12-08T11:32:42.687Z,76
2022-12-08T11:35:14.082Z,77
2022-12-08T11:37:44.790Z,77
2022-12-08T11:40:16.504Z,77
2022-12-08T11:42:47.716Z,77
2022-12-08T11:45:19.307Z,77
2022-12-08T11:47:55.558Z,76
2022-12-08T11:50:22.086Z,77
2022-12-08T11:52:52.978Z,77
2022-12-08T11:55:24.878Z,77
2022-12-08T11:57:55.522Z,77
2022-12-08T12:00:27.569Z,77
2022-12-08T12:02:59.056Z,76
2022-12-08T12:05:56.922Z,76
2022-12-08T12:08:01.353Z,76
2022-12-08T12:10:32.371Z,76
2022-12-08T12:13:03.449Z,76
2022-12-08T12:15:33.106Z,77
2022-12-08T12:18:03.487Z,77
2022-12-08T12:20:34.997Z,77
2022-12-08T12:23:06.280Z,77
2022-12-08T12:25:37.382Z,78
2022-12-08T12:28:07.991Z,77
2022-12-08T12:30:39.396Z,77
2022-12-08T12:33:09.804Z,77
2022-12-08T12:35:40.868Z,77
2022-12-08T12:38:11.958Z,77
2022-12-08T12:40:42.862Z,77
2022-12-08T12:43:13.723Z,77
2022-12-08T12:45:45.094Z,78
2022-12-08T12:48:15.866Z,79
2022-12-08T12:50:47.535Z,79
2022-12-08T12:53:18.032Z,79
2022-12-08T12:55:49.742Z,80
2022-12-08T12:58:20.693Z,80
2022-12-08T13:00:51.772Z,80
2022-12-08T13:03:22.444Z,80
2022-12-08T13:05:53.609Z,81
2022-12-08T13:08:24.181Z,81
2022-12-08T13:10:54.978Z,81
2022-12-08T13:13:25.923Z,81
2022-12-08T13:15:55.373Z,81
2022-12-08T13:18:26.511Z,81
2022-12-08T13:20:57.785Z,81
2022-12-08T13:23:28.359Z,81
2022-12-08T13:25:59.476Z,81
2022-12-08T13:28:30.188Z,81
2022-12-08T13:31:02.556Z,81
2022-12-08T13:33:33.374Z,82
2022-12-08T13:36:04.381Z,82
2022-12-08T13:38:35.689Z,81
2022-12-08T13:41:07.021Z,81
2022-12-08T13:43:47.662Z,81
2022-12-08T13:49:52.966Z,82
2022-12-08T13:54:42.803Z,82
2022-12-08T13:58:45.640Z,83
2022-12-08T14:01:17.004Z,83
2022-12-08T14:04:12.688Z,82
2022-12-08T14:06:20.242Z,82
2022-12-08T14:09:00.271Z,82
2022-12-08T14:11:23.503Z,82
2022-12-08T14:13:54.794Z,82
2022-12-08T14:16:26.608Z,83
2022-12-08T14:18:56.499Z,83
2022-12-08T14:21:32.776Z,83
2022-12-08T14:24:02.582Z,83
2022-12-08T14:26:33.830Z,83
2022-12-08T14:29:05.724Z,83
2022-12-08T14:31:36.926Z,83
2022-12-08T14:34:08.086Z,83
2022-12-08T14:36:39.200Z,83
2022-12-08T14:39:10.276Z,83
2022-12-08T14:41:41.717Z,83
2022-12-08T14:44:13.168Z,82
2022-12-08T14:46:45.047Z,82
2022-12-08T14:49:15.126Z,82
2022-12-08T14:51:46.751Z,82
2022-12-08T14:54:18.063Z,82
2022-12-08T14:56:49.313Z,83
2022-12-08T14:59:20.665Z,83
2022-12-08T15:01:52.142Z,83
2022-12-08T15:04:23.881Z,83
2022-12-08T15:06:54.864Z,83
2022-12-08T15:09:26.012Z,83
2022-12-08T15:11:57.199Z,83
2022-12-08T15:14:28.095Z,83
2022-12-08T15:16:59.671Z,83
2022-12-08T15:19:33.122Z,83
2022-12-08T15:22:09.921Z,83
2022-12-08T15:24:42.948Z,83
2022-12-08T15:27:12.186Z,83
2022-12-08T15:29:43.180Z,83
2022-12-08T15:32:14.660Z,83
2022-12-08T15:34:45.659Z,83
2022-12-08T15:37:16.916Z,83
2022-12-08T15:39:48.443Z,83
2022-12-08T15:42:19.557Z,83
2022-12-08T15:44:50.703Z,83
2022-12-08T15:47:21.829Z,83
2022-12-08T15:49:53.320Z,83
2022-12-08T15:52:24.229Z,83
2022-12-08T15:54:55.768Z,83
2022-12-08T15:58:04.371Z,83
2022-12-08T15:59:58.146Z,82
2022-12-08T16:02:43.074Z,82
2022-12-08T16:05:33.749Z,82
2022-12-08T16:07:32.614Z,82
2022-12-08T16:10:05.012Z,82
2022-12-08T16:13:13.806Z,83
2022-12-08T16:17:38.512Z,83
2022-12-08T16:20:10.040Z,83
2022-12-08T16:23:07.882Z,83
2022-12-08T16:25:19.687Z,83
2022-12-08T16:28:00.586Z,83
2022-12-08T16:30:19.736Z,83
2022-12-08T16:32:51.472Z,82
2022-12-08T16:35:22.904Z,83
2022-12-08T16:37:54.079Z,82
2022-12-08T16:40:25.232Z,82
2022-12-08T16:42:56.146Z,82
2022-12-08T16:45:27.058Z,82
2022-12-08T16:47:58.402Z,82
2022-12-08T16:50:30.543Z,82
2022-12-08T16:53:01.967Z,82
2022-12-08T16:55:33.033Z,82
2022-12-08T16:58:04.877Z,82
2022-12-08T17:00:36.249Z,82
2022-12-08T17:03:08.635Z,82
2022-12-08T17:05:39.788Z,82
2022-12-08T17:08:10.707Z,82
2022-12-08T17:10:41.511Z,82
2022-12-08T17:13:14.958Z,82
2022-12-08T17:15:46.144Z,82
2022-12-08T17:18:17.092Z,82
2022-12-08T17:20:48.547Z,81
2022-12-08T17:23:19.534Z,81
2022-12-08T17:25:51.127Z,81
2022-12-08T17:28:37.250Z,82
2022-12-08T17:30:53.717Z,82
2022-12-08T17:33:26.806Z,82
2022-12-08T17:35:56.182Z,82
2022-12-08T17:38:27.288Z,82
2022-12-08T17:40:59.174Z,82
2022-12-08T17:43:31.484Z,82
2022-12-08T17:46:02.855Z,82
2022-12-08T17:48:34.307Z,82
2022-12-08T17:51:05.866Z,82
2022-12-08T17:53:37.582Z,82
2022-12-08T17:56:08.547Z,82
2022-12-08T17:58:39.547Z,82
2022-12-08T18:01:10.744Z,82
2022-12-08T18:03:40.786Z,82
2022-12-08T18:06:11.780Z,83
2022-12-08T18:08:43.224Z,83
2022-12-08T18:11:15.553Z,83
2022-12-08T18:13:47.154Z,83
2022-12-08T18:16:18.581Z,83
2022-12-08T18:18:49.534Z,83
2022-12-08T18:21:23.462Z,83
2022-12-08T18:23:52.104Z,83
2022-12-08T18:26:23.713Z,83
2022-12-08T18:28:54.708Z,84
2022-12-08T18:31:25.641Z,84
2022-12-08T18:33:56.544Z,84
2022-12-08T18:36:27.928Z,84
2022-12-08T18:38:59.795Z,84
2022-12-08T18:41:30.805Z,84
2022-12-08T18:44:02.279Z,84
2022-12-08T18:46:34.016Z,84
2022-12-08T18:49:05.455Z,84
2022-12-08T18:51:36.922Z,84
2022-12-08T18:54:07.906Z,84
2022-12-08T18:56:39.061Z,85
2022-12-08T18:59:10.532Z,85
2022-12-08T19:01:43.072Z,85
2022-12-08T19:04:31.217Z,85
2022-12-08T19:06:45.784Z,85
2022-12-08T19:09:16.935Z,85
2022-12-08T19:11:47.068Z,85
2022-12-08T19:14:21.322Z,85
2022-12-08T19:16:49.124Z,85
2022-12-08T19:19:20.638Z,85
2022-12-08T19:21:51.994Z,86
2022-12-08T19:24:23.295Z,86
2022-12-08T19:26:54.404Z,86
2022-12-08T19:29:25.864Z,86
2022-12-08T19:31:55.499Z,86
2022-12-08T19:34:26.945Z,86
2022-12-08T19:36:56.441Z,86
2022-12-08T19:39:27.785Z,85
2022-12-08T19:42:00.603Z,85
2022-12-08T19:44:31.997Z,85
2022-12-08T19:47:03.120Z,85
2022-12-08T19:49:34.284Z,85
2022-12-08T19:52:08.672Z,84
2022-12-08T19:54:39.965Z,84
2022-12-08T19:57:11.111Z,84
2022-12-08T19:59:41.975Z,84
2022-12-08T20:02:13.045Z,84
2022-12-08T20:04:45.571Z,84
2022-12-08T20:07:16.543Z,84
2022-12-08T20:09:47.468Z,84
2022-12-08T20:12:18.565Z,84
2022-12-08T20:14:49.652Z,84
2022-12-08T20:17:22.190Z,83
2022-12-08T20:19:53.523Z,83
2022-12-08T20:22:27.904Z,83
2022-12-08T20:25:04.398Z,83
2022-12-08T20:27:35.431Z,83
2022-12-08T20:30:08.582Z,83
2022-12-08T20:32:38.218Z,83
2022-12-08T20:35:10.380Z,82
2022-12-08T20:37:41.691Z,82
2022-12-08T20:40:12.818Z,82
2022-12-08T20:42:45.155Z,82
2022-12-08T20:45:16.159Z,82
2022-12-08T20:47:47.761Z,82
2022-12-08T20:50:19.042Z,82
2022-12-08T20:52:50.658Z,81
2022-12-08T20:55:21.786Z,82
2022-12-08T20:57:52.579Z,82
2022-12-08T21:00:24.363Z,83
2022-12-08T21:02:56.906Z,84
2022-12-08T21:05:30.245Z,83
2022-12-08T21:08:01.503Z,83
2022-12-08T21:10:32.879Z,83
2022-12-08T21:13:04.592Z,84
2022-12-08T21:15:35.894Z,84
2022-12-08T21:18:07.135Z,84
2022-12-08T21:20:37.033Z,84
2022-12-08T21:23:08.971Z,84
2022-12-08T21:25:39.772Z,83
2022-12-08T21:28:12.130Z,83
2022-12-08T21:30:43.913Z,83
2022-12-08T21:33:15.166Z,83
2022-12-08T21:35:46.548Z,82
2022-12-08T21:38:18.160Z,82
2022-12-08T21:40:48.845Z,82
2022-12-08T21:43:20.114Z,81
2022-12-08T21:45:50.957Z,82
2022-12-08T21:48:25.482Z,83
2022-12-08T21:50:56.867Z,82
2022-12-08T21:53:28.139Z,82
2022-12-08T21:55:59.576Z,82
2022-12-08T21:58:34.076Z,82
2022-12-08T22:01:05.147Z,83
2022-12-08T22:03:36.275Z,83
2022-12-08T22:06:07.075Z,83
2022-12-08T22:08:38.475Z,83
2022-12-08T22:11:09.707Z,83
2022-12-08T22:13:41.296Z,83
2022-12-08T22:16:14.107Z,83
2022-12-08T22:18:48.146Z,83
2022-12-08T22:21:19.267Z,83
2022-12-08T22:23:50.216Z,83
2022-12-08T22:26:21.467Z,83
2022-12-08T22:28:53.471Z,83
2022-12-08T22:31:27.938Z,83
2022-12-08T22:33:59.285Z,83
2022-12-08T22:36:30.587Z,83
2022-12-08T22:39:01.451Z,83
2022-12-08T22:41:32.479Z,82
2022-12-08T22:44:05.011Z,82
2022-12-08T22:46:37.279Z,82
2022-12-08T22:49:08.832Z,82
2022-12-08T22:51:38.710Z,83
2022-12-08T22:54:09.732Z,83
2022-12-08T22:56:41.233Z,83
2022-12-08T22:59:12.673Z,83
2022-12-08T23:04:17.868Z,83
2022-12-08T23:06:47.263Z,83
2022-12-08T23:09:18.097Z,83
2022-12-08T23:11:49.275Z,83
2022-12-08T23:14:20.752Z,83
2022-12-08T23:16:53.423Z,83
2022-12-08T23:19:24.703Z,83
2022-12-08T23:21:55.878Z,83
2022-12-08T23:24:26.367Z,83
2022-12-08T23:26:57.192Z,83
2022-12-08T23:29:27.810Z,83
2022-12-08T23:31:57.048Z,83
2022-12-08T23:34:29.766Z,82
2022-12-08T23:37:01.289Z,82
2022-12-08T23:39:31.644Z,82
2022-12-08T23:42:02.626Z,82
2022-12-08T23:44:33.977Z,82
2022-12-08T23:47:05.700Z,82
2022-12-08T23:49:35.984Z,81
2022-12-08T23:52:07.172Z,82
2022-12-08T23:54:36.972Z,82
2022-12-08T23:57:07.835Z,82
2022-12-08T23:59:38.798Z,83
